Time;durP1;ratioP1;P1;durP2;ratioP2;P2;SDS_P1;SDS_P2;PMS_P1;PMS_P2;Temp;Humidity;BMP_temperature;BMP_pressure;BME280_temperature;BME280_humidity;BME280_pressure;Samples;Min_cycle;Max_cycle;Signal;HPM_P1;HPM_P2
2023/04/19 00:00:37;;;;;;;3.55;2.53;;;;;;;8.83;75.38;94386.41;5049835;28;20036;-76
2023/04/19 00:03:03;;;;;;;5.63;3.13;;;;;;;8.95;75.58;94390.56;5066159;28;20021;-76
2023/04/19 00:05:28;;;;;;;4.13;3.10;;;;;;;8.88;74.81;94377.28;5049886;28;20482;-76
2023/04/19 00:07:54;;;;;;;4.85;3.30;;;;;;;8.91;74.99;94387.44;5016497;28;20029;-76
2023/04/19 00:10:20;;;;;;;5.18;3.20;;;;;;;9.00;74.57;94388.44;5032641;28;20041;-76
2023/04/19 00:12:46;;;;;;;4.00;2.63;;;;;;;9.05;74.87;94391.44;5016709;28;20044;-76
2023/04/19 00:15:11;;;;;;;4.78;2.60;;;;;;;8.97;75.27;94382.66;5049746;28;20037;-75
2023/04/19 00:17:37;;;;;;;3.58;2.35;;;;;;;8.94;74.79;94357.84;5049545;28;20032;-76
2023/04/19 00:20:04;;;;;;;4.65;2.70;;;;;;;9.07;74.77;94388.72;5016792;28;20479;-76
2023/04/19 00:22:29;;;;;;;6.78;3.60;;;;;;;8.99;74.36;94354.88;5033877;28;20072;-76
2023/04/19 00:24:55;;;;;;;5.80;3.20;;;;;;;9.04;74.73;94378.63;5050316;28;20025;-76
2023/04/19 00:27:20;;;;;;;5.38;3.20;;;;;;;8.97;74.48;94367.97;5046484;28;20057;-79
2023/04/19 00:29:46;;;;;;;4.22;2.75;;;;;;;8.98;74.13;94369.59;5031558;28;20044;-79
2023/04/19 00:32:11;;;;;;;4.40;3.00;;;;;;;9.04;74.44;94371.66;5029942;28;20523;-77
2023/04/19 00:34:37;;;;;;;3.88;2.47;;;;;;;9.08;74.79;94369.63;5049774;28;20055;-76
2023/04/19 00:37:05;;;;;;;3.25;2.35;;;;;;;8.91;75.23;94356.34;5029325;28;20032;-76
2023/04/19 00:39:30;;;;;;;3.40;2.33;;;;;;;9.00;75.44;94366.84;5021926;28;20037;-76
2023/04/19 00:41:56;;;;;;;2.80;2.13;;;;;;;8.92;74.54;94333.84;5029603;28;20033;-76
2023/04/19 00:44:22;;;;;;;3.00;2.00;;;;;;;8.99;74.88;94358.28;5038419;28;20026;-76
2023/04/19 00:46:48;;;;;;;3.13;2.13;;;;;;;8.94;75.25;94350.91;5027427;28;20029;-76
2023/04/19 00:49:13;;;;;;;2.95;2.00;;;;;;;9.08;75.26;94359.25;5029401;28;20126;-76
2023/04/19 00:51:39;;;;;;;3.30;2.10;;;;;;;9.08;74.77;94356.69;5035091;28;20033;-75
2023/04/19 00:54:05;;;;;;;3.08;1.70;;;;;;;9.03;74.29;94335.53;5049944;28;20411;-75
2023/04/19 00:56:30;;;;;;;3.13;2.10;;;;;;;9.13;73.99;94362.28;5049596;28;20498;-74
2023/04/19 00:58:57;;;;;;;2.40;1.55;;;;;;;8.92;74.56;94337.25;5034482;28;20059;-75
2023/04/19 01:01:22;;;;;;;3.35;2.25;;;;;;;8.89;75.64;94345.28;5029644;28;20042;-74
2023/04/19 01:03:48;;;;;;;2.47;1.90;;;;;;;8.94;75.42;94350.91;5008302;28;20411;-74
2023/04/19 01:06:13;;;;;;;4.05;2.05;;;;;;;8.85;75.22;94337.88;5030404;28;20443;-75
2023/04/19 01:08:39;;;;;;;2.83;1.83;;;;;;;8.94;74.94;94352.66;5017209;28;20029;-74
2023/04/19 01:11:06;;;;;;;3.20;2.08;;;;;;;8.93;75.24;94346.66;5052563;28;20099;-74
2023/04/19 01:13:32;;;;;;;3.53;2.10;;;;;;;8.82;75.69;94351.09;5049093;28;20025;-76
2023/04/19 01:15:57;;;;;;;3.88;2.00;;;;;;;8.83;75.73;94350.13;5034950;28;20048;-76
2023/04/19 01:18:24;;;;;;;3.22;2.15;;;;;;;8.61;75.69;94302.75;5049877;28;20025;-76
2023/04/19 01:20:50;;;;;;;3.30;1.85;;;;;;;8.87;75.65;94338.59;5035557;28;20033;-75
2023/04/19 01:23:15;;;;;;;2.92;1.95;;;;;;;8.98;75.31;94348.06;5027313;28;20024;-76
2023/04/19 01:25:41;;;;;;;2.97;1.98;;;;;;;8.88;75.77;94345.41;5047397;28;20056;-76
2023/04/19 01:28:06;;;;;;;2.83;1.80;;;;;;;8.90;75.65;94349.50;5050195;28;20454;-76
2023/04/19 01:30:32;;;;;;;3.00;2.17;;;;;;;8.77;75.78;94343.69;5051173;28;20423;-76
2023/04/19 01:32:57;;;;;;;3.15;2.22;;;;;;;8.72;75.20;94318.19;5051947;28;20087;-76
2023/04/19 01:35:22;;;;;;;3.40;2.38;;;;;;;8.80;75.50;94321.91;5050554;28;20090;-76
2023/04/19 01:37:49;;;;;;;2.83;2.10;;;;;;;8.94;75.18;94340.53;5051423;28;20040;-76
2023/04/19 01:40:15;;;;;;;3.80;2.40;;;;;;;8.86;75.31;94326.56;5052190;28;20155;-76
2023/04/19 01:42:40;;;;;;;3.13;2.22;;;;;;;8.91;75.38;94337.38;5035225;28;20485;-76
2023/04/19 01:45:06;;;;;;;4.35;2.20;;;;;;;8.80;75.88;94325.31;5035039;28;20379;-76
2023/04/19 01:47:31;;;;;;;3.97;2.50;;;;;;;8.90;75.15;94339.13;5054491;28;20431;-76
2023/04/19 01:49:57;;;;;;;3.58;2.53;;;;;;;8.90;75.14;94336.56;5035312;28;20498;-76
2023/04/19 01:52:22;;;;;;;4.43;2.45;;;;;;;8.81;75.53;94324.38;5059099;28;20040;-77
2023/04/19 01:54:48;;;;;;;4.80;2.85;;;;;;;8.95;75.53;94337.00;5061302;28;20117;-77
2023/04/19 01:57:15;;;;;;;4.90;3.10;;;;;;;8.93;74.86;94331.09;5057893;28;20040;-78
2023/04/19 01:59:40;;;;;;;3.88;2.78;;;;;;;8.92;74.30;94337.25;5048608;28;20029;-77
2023/04/19 02:02:07;;;;;;;3.53;2.58;;;;;;;8.82;74.71;94327.78;5033818;28;20029;-77
2023/04/19 02:04:33;;;;;;;3.65;2.28;;;;;;;8.76;74.16;94308.41;5034028;28;20028;-77
2023/04/19 02:06:58;;;;;;;4.72;2.78;;;;;;;8.93;73.70;94325.13;5016321;28;20094;-77
2023/04/19 02:09:24;;;;;;;3.97;2.70;;;;;;;8.79;73.96;94302.97;5050095;28;20036;-77
2023/04/19 02:11:49;;;;;;;4.25;2.42;;;;;;;8.84;74.84;94311.16;5068175;28;20140;-77
2023/04/19 02:14:14;;;;;;;3.05;2.10;;;;;;;8.86;75.29;94334.34;5053429;28;20039;-78
2023/04/19 02:16:40;;;;;;;4.38;2.50;;;;;;;8.88;75.29;94332.44;5054433;28;20032;-77
2023/04/19 02:19:06;;;;;;;3.63;2.20;;;;;;;8.67;75.25;94296.22;5032741;28;20036;-77
2023/04/19 02:21:31;;;;;;;3.13;2.20;;;;;;;8.85;75.19;94330.94;5034243;28;20474;-77
2023/04/19 02:23:57;;;;;;;3.08;2.35;;;;;;;8.85;75.47;94333.53;5050473;28;20036;-77
2023/04/19 02:26:23;;;;;;;4.03;2.00;;;;;;;8.85;75.75;94333.53;5069301;28;20145;-77
2023/04/19 02:28:51;;;;;;;2.90;2.00;;;;;;;8.66;75.64;94299.75;5058901;28;20060;-77
2023/04/19 02:31:16;;;;;;;2.50;1.77;;;;;;;8.81;75.10;94305.44;5048995;28;20137;-77
2023/04/19 02:33:42;;;;;;;4.82;2.17;;;;;;;9.01;74.10;94340.03;5032922;28;20059;-77
2023/04/19 02:36:08;;;;;;;5.45;1.98;;;;;;;8.86;74.63;94317.03;5051796;28;20507;-77
2023/04/19 02:38:33;;;;;;;2.60;1.75;;;;;;;8.61;74.17;94273.41;5051152;28;20032;-77
2023/04/19 02:41:00;;;;;;;3.08;2.15;;;;;;;8.97;73.98;94323.94;5034511;28;20052;-77
2023/04/19 02:43:25;;;;;;;5.97;2.00;;;;;;;9.04;73.90;94330.22;5051342;28;20461;-77
2023/04/19 02:45:51;;;;;;;3.25;1.73;;;;;;;9.06;72.15;94330.09;5070450;28;20040;-77
2023/04/19 02:48:16;;;;;;;5.60;2.72;;;;;;;9.05;72.69;94329.25;5071496;28;20044;-77
2023/04/19 02:50:42;;;;;;;4.95;3.15;;;;;;;9.06;72.27;94335.28;5068504;28;20041;-77
2023/04/19 02:53:07;;;;;;;4.20;2.88;;;;;;;9.02;72.42;94324.31;5069056;28;20434;-78
2023/04/19 02:55:33;;;;;;;4.65;2.65;;;;;;;8.72;72.34;94294.06;5053085;28;20032;-77
2023/04/19 02:57:58;;;;;;;4.35;2.40;;;;;;;8.89;72.78;94316.78;5069219;28;20720;-77
2023/04/19 03:00:24;;;;;;;4.35;2.45;;;;;;;8.97;72.85;94336.88;5052586;28;20033;-77
2023/04/19 03:02:49;;;;;;;3.40;2.45;;;;;;;8.90;72.36;94309.84;5036534;28;20041;-77
2023/04/19 03:05:15;;;;;;;4.07;3.00;;;;;;;9.01;72.58;94321.88;5047826;28;20032;-77
2023/04/19 03:07:40;;;;;;;4.53;3.45;;;;;;;9.08;72.12;94323.00;5052199;28;20045;-77
2023/04/19 03:10:06;;;;;;;24.48;14.88;;;;;;;9.10;72.35;94328.88;5051940;28;20029;-77
2023/04/19 03:12:32;;;;;;;36.03;20.90;;;;;;;9.08;71.98;94313.47;5070444;28;20126;-77
2023/04/19 03:14:57;;;;;;;23.65;13.35;;;;;;;9.09;72.10;94328.06;5065641;28;20024;-77
2023/04/19 03:17:23;;;;;;;9.45;5.50;;;;;;;9.14;71.97;94328.50;5067189;28;20039;-77
2023/04/19 03:19:49;;;;;;;8.23;5.03;;;;;;;8.99;72.33;94310.81;5068334;28;20509;-77
2023/04/19 03:22:14;;;;;;;5.20;3.83;;;;;;;8.78;72.28;94301.31;5051648;28;20040;-77
2023/04/19 03:24:39;;;;;;;5.50;3.25;;;;;;;8.95;72.56;94326.63;5050581;28;20485;-77
2023/04/19 03:27:05;;;;;;;4.95;3.90;;;;;;;8.87;72.99;94323.03;5047872;28;20057;-77
2023/04/19 03:29:30;;;;;;;5.90;3.53;;;;;;;8.81;72.95;94303.66;5050033;28;20446;-77
2023/04/19 03:31:56;;;;;;;4.53;3.38;;;;;;;8.97;72.06;94325.66;5050015;28;20611;-77
2023/04/19 03:34:21;;;;;;;6.95;4.38;;;;;;;8.87;72.26;94318.69;5051043;28;20029;-77
2023/04/19 03:36:47;;;;;;;6.28;3.97;;;;;;;8.91;72.04;94330.44;5050070;28;20040;-77
2023/04/19 03:39:12;;;;;;;9.43;4.45;;;;;;;8.69;72.12;94307.25;5050847;28;20601;-77
2023/04/19 03:41:39;;;;;;;9.05;4.22;;;;;;;8.67;72.71;94327.31;5064170;28;20387;-77
2023/04/19 03:44:04;;;;;;;6.07;3.30;;;;;;;8.79;72.32;94328.84;5053360;28;20491;-77
2023/04/19 03:46:30;;;;;;;4.18;2.80;;;;;;;8.64;73.00;94322.38;5052717;28;20043;-77
2023/04/19 03:48:56;;;;;;;5.47;3.10;;;;;;;8.52;72.66;94298.31;5069755;28;20345;-77
2023/04/19 03:51:21;;;;;;;5.60;3.05;;;;;;;8.30;72.38;94260.41;5051119;28;20394;-77
2023/04/19 03:53:47;;;;;;;4.70;3.08;;;;;;;8.34;73.40;94318.72;5051270;28;20029;-77
2023/04/19 03:56:12;;;;;;;3.60;2.65;;;;;;;8.27;73.29;94307.22;5049895;28;20037;-77
2023/04/19 03:58:38;;;;;;;5.75;3.03;;;;;;;8.14;74.37;94317.78;5049893;28;20028;-77
2023/04/19 04:01:04;;;;;;;5.60;2.75;;;;;;;8.27;74.20;94320.16;5032409;28;20053;-77
2023/04/19 04:03:29;;;;;;;4.00;2.90;;;;;;;8.23;74.08;94313.63;5032963;28;20033;-77
2023/04/19 04:05:55;;;;;;;5.57;3.08;;;;;;;8.07;74.13;94301.91;5049624;28;20178;-77
2023/04/19 04:08:20;;;;;;;4.03;3.00;;;;;;;8.16;74.43;94331.41;5066891;28;20044;-77
2023/04/19 04:10:46;;;;;;;5.72;3.00;;;;;;;8.14;74.43;94337.66;5069528;28;20032;-77
2023/04/19 04:13:11;;;;;;;4.40;2.88;;;;;;;8.00;74.75;94300.78;5070882;28;20596;-77
2023/04/19 04:15:36;;;;;;;5.57;3.25;;;;;;;8.02;74.43;94324.75;5061102;28;20022;-77
2023/04/19 04:18:02;;;;;;;6.47;3.63;;;;;;;8.17;74.80;94334.81;5049300;28;20087;-77
2023/04/19 04:20:28;;;;;;;6.32;4.05;;;;;;;8.17;74.66;94327.06;5050643;28;20052;-77
2023/04/19 04:22:53;;;;;;;4.50;3.17;;;;;;;8.22;74.51;94338.69;5030286;28;20514;-77
2023/04/19 04:25:19;;;;;;;5.43;3.88;;;;;;;8.16;74.50;94317.63;5050830;28;20029;-77
2023/04/19 04:27:45;;;;;;;5.88;4.43;;;;;;;8.31;74.12;94331.13;5082097;28;20489;-77
2023/04/19 04:30:11;;;;;;;5.53;3.65;;;;;;;8.26;74.06;94336.66;5085230;28;20028;-77
2023/04/19 04:32:37;;;;;;;5.13;3.95;;;;;;;8.28;73.82;94339.94;5077151;28;20532;-77
2023/04/19 04:35:03;;;;;;;5.25;3.92;;;;;;;8.35;73.73;94340.25;5091812;28;20024;-77
2023/04/19 04:37:30;;;;;;;4.70;3.60;;;;;;;8.35;73.41;94350.59;5077117;28;20063;-77
2023/04/19 04:39:55;;;;;;;6.85;4.80;;;;;;;8.37;73.54;94343.53;5060346;28;20024;-77
2023/04/19 04:42:20;;;;;;;7.88;4.32;;;;;;;8.43;73.12;94340.47;5093871;28;20111;-77
2023/04/19 04:44:46;;;;;;;6.28;4.05;;;;;;;8.37;73.25;94334.00;5076628;28;20020;-77
2023/04/19 04:47:12;;;;;;;7.90;5.05;;;;;;;8.34;73.75;94351.56;5041963;28;20154;-77
2023/04/19 04:49:37;;;;;;;10.05;6.80;;;;;;;8.50;73.21;94346.81;5059334;28;20111;-78
2023/04/19 04:52:03;;;;;;;9.95;5.38;;;;;;;8.50;72.50;94334.69;5101255;28;20413;-78
2023/04/19 04:54:29;;;;;;;10.82;7.47;;;;;;;8.60;72.46;94346.88;5072894;28;20075;-76
2023/04/19 04:56:54;;;;;;;15.70;9.23;;;;;;;8.56;72.41;94340.31;5074521;28;20043;-76
2023/04/19 04:59:20;;;;;;;13.23;8.65;;;;;;;8.72;72.41;94348.47;5072422;28;20098;-76
2023/04/19 05:01:45;;;;;;;7.25;5.22;;;;;;;8.71;71.97;94336.44;5061491;28;20032;-76
2023/04/19 05:04:11;;;;;;;6.93;3.58;;;;;;;8.62;71.55;94329.44;5039600;28;20048;-76
2023/04/19 05:06:39;;;;;;;4.93;3.80;;;;;;;8.74;71.72;94346.53;5068554;28;20042;-74
2023/04/19 05:09:05;;;;;;;5.15;3.30;;;;;;;8.80;71.52;94346.03;5075625;28;20048;-76
2023/04/19 05:11:30;;;;;;;8.20;7.35;;;;;;;8.88;71.02;94348.81;5076029;28;20474;-76
2023/04/19 05:13:56;;;;;;;5.80;4.65;;;;;;;8.90;70.99;94344.31;5072135;28;20033;-76
2023/04/19 05:16:22;;;;;;;4.20;3.38;;;;;;;8.85;70.74;94338.69;5071363;28;20086;-77
2023/04/19 05:18:47;;;;;;;7.57;4.88;;;;;;;8.93;70.62;94359.59;5073659;28;20040;-77
2023/04/19 05:21:13;;;;;;;6.20;4.38;;;;;;;8.94;70.60;94356.09;5094794;28;20540;-75
2023/04/19 05:23:38;;;;;;;5.47;3.92;;;;;;;8.97;70.36;94355.00;5077549;28;20050;-76
2023/04/19 05:26:04;;;;;;;8.00;5.57;;;;;;;8.92;70.26;94347.63;5107261;28;20055;-76
2023/04/19 05:28:29;;;;;;;11.25;6.60;;;;;;;8.89;70.32;94347.06;5073280;28;20087;-77
2023/04/19 05:30:55;;;;;;;28.08;15.10;;;;;;;9.05;70.51;94354.34;5085608;28;20035;-77
2023/04/19 05:33:20;;;;;;;9.57;6.53;;;;;;;9.18;69.84;94360.13;5053793;28;20752;-77
2023/04/19 05:35:46;;;;;;;10.10;6.35;;;;;;;9.10;69.78;94360.78;5052541;28;20445;-77
2023/04/19 05:38:11;;;;;;;7.57;5.40;;;;;;;8.98;70.24;94364.41;5036014;28;20028;-77
2023/04/19 05:40:38;;;;;;;6.22;4.70;;;;;;;9.09;69.28;94360.94;5039160;28;20480;-77
2023/04/19 05:43:04;;;;;;;5.70;4.28;;;;;;;9.08;69.65;94367.03;5075471;28;20035;-77
2023/04/19 05:45:29;;;;;;;7.18;4.72;;;;;;;9.02;69.91;94359.78;5092136;28;20028;-77
2023/04/19 05:47:55;;;;;;;4.47;3.40;;;;;;;9.02;69.64;94365.78;5075246;28;20035;-77
2023/04/19 05:50:20;;;;;;;4.38;3.28;;;;;;;8.99;70.15;94370.41;5075509;28;20032;-77
2023/04/19 05:52:46;;;;;;;7.68;5.00;;;;;;;9.07;69.40;94368.00;5075645;28;20028;-77
2023/04/19 05:55:12;;;;;;;4.75;3.65;;;;;;;9.07;69.62;94368.00;5075374;28;20036;-77
2023/04/19 05:57:37;;;;;;;6.85;4.78;;;;;;;8.95;69.85;94365.50;5075673;28;20402;-77
2023/04/19 06:00:04;;;;;;;6.85;4.97;;;;;;;8.92;70.00;94363.16;5075278;28;20036;-77
2023/04/19 06:02:29;;;;;;;7.60;5.10;;;;;;;8.80;70.16;94335.66;5058785;28;20528;-77
2023/04/19 06:04:56;;;;;;;9.05;6.13;;;;;;;8.97;70.03;94361.94;5075201;28;20115;-77
2023/04/19 06:07:22;;;;;;;6.68;4.38;;;;;;;9.09;69.92;94360.94;5058831;28;20068;-77
2023/04/19 06:09:48;;;;;;;5.50;4.35;;;;;;;9.13;69.80;94364.88;5058716;28;20066;-77
2023/04/19 06:12:13;;;;;;;4.78;3.60;;;;;;;9.12;69.58;94351.13;5075458;28;20035;-77
2023/04/19 06:14:39;;;;;;;4.43;3.70;;;;;;;9.25;69.68;94368.22;5056611;28;20031;-77
2023/04/19 06:17:04;;;;;;;4.85;3.70;;;;;;;9.29;68.87;94347.09;5093332;28;20393;-77
2023/04/19 06:19:32;;;;;;;4.38;3.60;;;;;;;9.46;69.12;94375.94;5075418;28;20555;-77
2023/04/19 06:21:58;;;;;;;5.97;3.85;;;;;;;9.39;68.85;94357.50;5075748;28;20099;-77
2023/04/19 06:24:24;;;;;;;8.45;4.35;;;;;;;9.16;68.95;94330.94;5056765;28;20043;-77
2023/04/19 06:26:49;;;;;;;6.57;4.95;;;;;;;9.40;69.13;94370.34;5074690;28;20472;-77
2023/04/19 06:29:15;;;;;;;5.15;3.80;;;;;;;9.36;69.05;94348.22;5074681;28;20039;-77
2023/04/19 06:31:40;;;;;;;6.03;4.47;;;;;;;9.47;69.00;94370.66;5074789;28;20108;-77
2023/04/19 06:34:06;;;;;;;8.18;5.55;;;;;;;9.43;69.31;94371.03;5074654;28;20070;-77
2023/04/19 06:36:31;;;;;;;8.68;5.50;;;;;;;9.59;69.44;94374.78;5074615;28;20059;-77
2023/04/19 06:38:56;;;;;;;4.68;3.53;;;;;;;9.59;68.42;94373.97;5074544;28;20035;-77
2023/04/19 06:41:22;;;;;;;5.50;4.18;;;;;;;9.69;68.23;94377.38;5092795;28;20032;-77
2023/04/19 06:43:48;;;;;;;5.25;3.38;;;;;;;9.74;67.64;94383.00;5057900;28;20390;-77
2023/04/19 06:46:14;;;;;;;4.47;3.45;;;;;;;9.82;67.54;94379.75;5074549;28;20032;-77
2023/04/19 06:48:40;;;;;;;5.38;3.63;;;;;;;9.88;67.45;94381.81;5074194;28;20055;-77
2023/04/19 06:51:05;;;;;;;5.82;3.45;;;;;;;10.00;66.69;94374.72;5074217;28;20070;-77
2023/04/19 06:53:30;;;;;;;6.57;3.67;;;;;;;9.98;66.54;94371.47;5074304;28;20051;-78
2023/04/19 06:56:00;;;;;;;5.95;3.58;;;;;;;9.76;67.02;94333.59;5074118;28;20406;-77
2023/04/19 06:58:26;;;;;;;6.13;4.10;;;;;;;10.04;67.06;94363.13;5074422;28;20028;-77
2023/04/19 07:00:52;;;;;;;6.30;4.28;;;;;;;10.29;66.63;94372.19;5074111;28;20471;-77
2023/04/19 07:03:18;;;;;;;5.13;3.50;;;;;;;10.46;65.82;94381.09;5057339;28;20032;-77
2023/04/19 07:05:43;;;;;;;4.25;3.40;;;;;;;10.56;65.25;94381.91;5073979;28;20024;-77
2023/04/19 07:08:09;;;;;;;4.97;3.33;;;;;;;10.59;65.05;94383.41;5091985;28;20031;-77
2023/04/19 07:10:34;;;;;;;4.82;3.65;;;;;;;10.54;65.37;94386.41;5057302;28;20028;-77
2023/04/19 07:13:00;;;;;;;5.65;3.55;;;;;;;10.56;64.80;94368.94;5073927;28;20082;-77
2023/04/19 07:15:25;;;;;;;5.32;3.63;;;;;;;10.63;64.52;94380.41;5057259;28;20406;-77
2023/04/19 07:17:51;;;;;;;4.63;3.58;;;;;;;10.51;64.17;94384.09;5074051;28;20422;-77
2023/04/19 07:20:16;;;;;;;5.15;3.30;;;;;;;10.59;64.27;94363.47;5073688;28;20020;-77
2023/04/19 07:22:41;;;;;;;5.47;3.25;;;;;;;10.78;63.94;94380.81;5073914;28;20399;-77
2023/04/19 07:25:07;;;;;;;5.10;3.30;;;;;;;10.85;63.88;94373.28;5091524;28;20085;-77
2023/04/19 07:27:33;;;;;;;5.28;3.67;;;;;;;11.06;63.25;94386.91;5073898;28;20474;-77
2023/04/19 07:29:58;;;;;;;3.95;3.00;;;;;;;11.23;62.86;94382.75;5056827;28;20024;-78
2023/04/19 07:32:24;;;;;;;3.42;3.00;;;;;;;11.24;62.16;94383.56;5073740;28;20521;-77
2023/04/19 07:34:50;;;;;;;3.97;3.20;;;;;;;11.36;62.87;94377.22;5091602;28;20445;-78
2023/04/19 07:37:16;;;;;;;4.80;2.63;;;;;;;11.55;61.92;94377.16;5040637;28;20036;-78
2023/04/19 07:39:41;;;;;;;3.47;2.53;;;;;;;11.73;61.13;94379.00;5073360;28;20062;-77
2023/04/19 07:42:07;;;;;;;3.15;2.33;;;;;;;11.61;60.01;94365.34;5056613;28;20082;-78
2023/04/19 07:44:32;;;;;;;4.55;2.45;;;;;;;11.87;60.57;94378.56;5057067;28;20475;-78
2023/04/19 07:46:58;;;;;;;4.43;3.05;;;;;;;11.79;59.49;94368.03;5091523;28;20028;-78
2023/04/19 07:49:23;;;;;;;5.07;3.10;;;;;;;12.03;59.50;94378.72;5056553;28;20028;-78
2023/04/19 07:51:48;;;;;;;4.13;2.95;;;;;;;12.04;59.62;94364.75;5073247;28;20036;-78
2023/04/19 07:54:19;;;;;;;3.55;2.35;;;;;;;12.26;58.69;94362.69;5073373;28;20039;-78
2023/04/19 07:56:45;;;;;;;3.92;2.83;;;;;;;12.34;58.46;94364.53;5057842;28;20599;-78
2023/04/19 07:59:10;;;;;;;4.38;2.95;;;;;;;12.42;58.27;94372.44;5056331;28;20080;-78
2023/04/19 08:01:35;;;;;;;3.45;2.55;;;;;;;12.44;58.52;94373.94;5072836;28;20035;-78
2023/04/19 08:04:01;;;;;;;3.90;2.80;;;;;;;12.48;57.42;94379.66;5056413;28;20058;-78
2023/04/19 08:06:28;;;;;;;5.97;3.13;;;;;;;12.49;57.93;94371.69;5039738;28;20101;-78
2023/04/19 08:08:53;;;;;;;8.05;3.00;;;;;;;12.34;58.21;94357.56;5072857;28;20024;-78
2023/04/19 08:11:19;;;;;;;4.28;3.00;;;;;;;12.55;58.40;94374.69;5039674;28;20089;-78
2023/04/19 08:13:45;;;;;;;5.57;3.30;;;;;;;12.55;58.00;94375.50;5073054;28;20465;-78
2023/04/19 08:16:10;;;;;;;7.55;3.30;;;;;;;12.51;57.58;94361.94;5056214;28;20028;-78
2023/04/19 08:18:36;;;;;;;5.32;3.70;;;;;;;12.62;57.50;94358.31;5056354;28;20031;-77
2023/04/19 08:21:01;;;;;;;4.20;3.30;;;;;;;12.68;57.20;94349.88;5056140;28;20032;-78
2023/04/19 08:23:27;;;;;;;4.00;2.90;;;;;;;12.95;56.72;94364.59;5072882;28;20111;-78
2023/04/19 08:25:52;;;;;;;3.80;2.80;;;;;;;13.00;56.22;94369.31;5039517;28;20060;-78
2023/04/19 08:28:18;;;;;;;4.22;2.80;;;;;;;13.07;56.00;94372.97;5072771;28;20040;-78
2023/04/19 08:30:43;;;;;;;5.32;2.90;;;;;;;13.15;55.50;94359.19;5072854;28;20094;-78
2023/04/19 08:33:09;;;;;;;4.20;2.60;;;;;;;13.21;55.76;94368.97;5039647;28;20467;-78
2023/04/19 08:35:36;;;;;;;4.15;3.03;;;;;;;13.22;56.45;94369.78;5072732;28;20024;-78
2023/04/19 08:38:03;;;;;;;5.65;3.38;;;;;;;13.03;55.62;94368.19;5072816;28;20036;-78
2023/04/19 08:40:29;;;;;;;6.07;3.83;;;;;;;12.75;56.19;94335.25;5072948;28;20028;-78
2023/04/19 08:42:55;;;;;;;4.30;3.05;;;;;;;13.16;56.42;94366.81;5072928;28;20173;-78
2023/04/19 08:45:21;;;;;;;3.70;2.90;;;;;;;13.00;55.87;94351.06;5056109;28;20106;-78
2023/04/19 08:47:46;;;;;;;4.63;3.10;;;;;;;12.92;55.79;94353.63;5056115;28;20029;-78
2023/04/19 08:50:12;;;;;;;3.75;2.95;;;;;;;12.98;56.22;94358.22;5055864;28;20032;-78
2023/04/19 08:52:37;;;;;;;3.75;2.92;;;;;;;13.21;56.06;94361.16;5072804;28;20039;-78
2023/04/19 08:55:07;;;;;;;3.95;2.60;;;;;;;13.28;55.57;94353.56;5072604;28;20394;-78
2023/04/19 08:57:33;;;;;;;4.38;3.08;;;;;;;13.44;55.42;94361.47;5072625;28;20038;-78
2023/04/19 08:59:59;;;;;;;4.78;3.20;;;;;;;13.47;55.50;94355.13;5055647;28;20119;-78
2023/04/19 09:02:24;;;;;;;5.35;2.65;;;;;;;13.51;54.47;94341.63;5055920;28;20556;-78
2023/04/19 09:04:50;;;;;;;4.68;3.00;;;;;;;13.48;54.27;94354.97;5072569;28;20107;-78
2023/04/19 09:07:25;;;;;;;7.40;2.80;;;;;;;13.36;54.96;94346.59;5072397;28;20173;-77
2023/04/19 09:10:04;;;;;;;4.43;3.05;;;;;;;13.33;54.82;94354.72;5039462;28;20043;-78
2023/04/19 09:12:30;;;;;;;4.32;3.33;;;;;;;13.59;55.21;94351.25;5059004;28;20459;-78
2023/04/19 09:14:55;;;;;;;7.65;2.70;;;;;;;13.52;54.15;94332.81;5094214;28;20027;-78
2023/04/19 09:17:21;;;;;;;3.58;2.80;;;;;;;13.55;54.62;94337.72;5059627;28;20039;-78
2023/04/19 09:19:47;;;;;;;4.00;2.97;;;;;;;13.66;53.63;94341.84;5075912;28;20028;-78
2023/04/19 09:22:13;;;;;;;5.22;2.80;;;;;;;13.71;53.46;94339.59;5059489;28;20043;-78
2023/04/19 09:24:39;;;;;;;5.63;3.20;;;;;;;13.79;52.92;94339.63;5042754;28;20502;-78
2023/04/19 09:27:04;;;;;;;4.85;3.40;;;;;;;13.96;53.42;94345.69;5042393;28;20136;-77
2023/04/19 09:29:30;;;;;;;4.45;2.63;;;;;;;13.89;53.02;94346.50;5075914;28;20107;-77
2023/04/19 09:31:58;;;;;;;4.07;2.80;;;;;;;13.86;52.75;94343.22;5075884;28;20020;-77
2023/04/19 09:34:24;;;;;;;8.40;3.58;;;;;;;13.75;53.21;94335.66;5059211;28;20071;-79
2023/04/19 09:36:49;;;;;;;4.28;3.03;;;;;;;13.57;53.43;94345.41;5058924;28;20059;-78
2023/04/19 09:39:30;;;;;;;6.88;3.28;;;;;;;13.76;53.29;94333.88;5075701;28;20036;-79
2023/04/19 09:41:57;;;;;;;4.00;2.80;;;;;;;14.04;52.76;94347.50;5059272;28;20027;-79
2023/04/19 09:44:22;;;;;;;4.18;2.90;;;;;;;14.06;51.75;94337.72;5042659;28;20039;-78
2023/04/19 09:46:50;;;;;;;4.97;2.60;;;;;;;13.93;52.48;94339.97;5042445;28;20415;-79
2023/04/19 09:49:25;;;;;;;3.92;2.42;;;;;;;14.03;51.65;94322.38;5075891;28;20067;-79
2023/04/19 09:51:54;;;;;;;2.72;2.05;;;;;;;14.09;51.64;94314.69;5059087;28;20039;-77
2023/04/19 09:54:22;;;;;;;3.92;2.55;;;;;;;14.24;51.51;94324.53;5059129;28;20031;-79
2023/04/19 09:56:48;;;;;;;3.47;2.40;;;;;;;14.35;50.75;94318.16;5059000;28;20027;-87
2023/04/19 09:59:13;;;;;;;3.88;2.53;;;;;;;14.49;50.66;94330.63;5042463;28;20064;-75
2023/04/19 10:01:42;;;;;;;4.35;2.90;;;;;;;14.28;51.16;94318.81;5075402;28;20028;-76
2023/04/19 10:04:10;;;;;;;4.40;2.95;;;;;;;14.26;51.27;94307.72;5075289;28;20103;-76
2023/04/19 10:06:35;;;;;;;3.75;2.58;;;;;;;14.48;51.45;94310.66;5075191;28;20486;-76
2023/04/19 10:09:02;;;;;;;3.28;2.40;;;;;;;14.58;50.91;94303.53;5075121;28;20039;-76
2023/04/19 10:11:37;;;;;;;4.72;3.22;;;;;;;14.80;50.64;94306.47;5042158;28;20028;-76
2023/04/19 10:14:04;;;;;;;5.75;3.80;;;;;;;14.64;49.79;94299.44;5075474;28;20039;-76
2023/04/19 10:16:29;;;;;;;17.77;7.30;;;;;;;14.84;49.52;94307.75;5075046;28;20448;-76
2023/04/19 10:18:55;;;;;;;7.40;3.58;;;;;;;14.86;49.12;94305.78;5058255;28;20082;-76
2023/04/19 10:21:20;;;;;;;5.05;3.70;;;;;;;14.96;49.21;94301.22;5074891;28;20028;-75
2023/04/19 10:23:45;;;;;;;3.85;2.80;;;;;;;14.89;48.68;94289.78;5057600;28;20028;-76
2023/04/19 10:26:11;;;;;;;5.65;2.50;;;;;;;14.96;49.07;94295.97;5057914;28;20056;-76
2023/04/19 10:28:36;;;;;;;4.53;2.60;;;;;;;14.88;48.19;94299.41;5057990;28;20599;-76
2023/04/19 10:31:03;;;;;;;3.30;2.53;;;;;;;15.05;48.30;94292.34;5058035;28;20402;-76
2023/04/19 10:33:31;;;;;;;3.58;2.65;;;;;;;15.14;48.90;94288.72;5074706;28;20043;-76
2023/04/19 10:35:57;;;;;;;6.30;2.40;;;;;;;15.34;49.23;94289.16;5074749;28;20035;-76
2023/04/19 10:38:47;;;;;;;3.65;2.38;;;;;;;15.46;47.14;94279.16;5058095;28;20051;-76
2023/04/19 10:41:16;;;;;;;3.47;2.38;;;;;;;15.56;47.13;94278.94;5092693;28;20024;-76
2023/04/19 10:43:47;;;;;;;3.05;2.20;;;;;;;15.57;46.24;94278.78;5041615;28;20119;-76
2023/04/19 10:46:24;;;;;;;4.07;2.28;;;;;;;15.39;45.76;94279.00;5092502;28;20028;-76
2023/04/19 10:48:57;;;;;;;2.75;2.10;;;;;;;15.10;45.67;94271.75;5092247;28;20482;-76
2023/04/19 10:51:27;;;;;;;3.30;2.22;;;;;;;15.23;46.45;94265.16;5057901;28;20409;-75
2023/04/19 10:53:56;;;;;;;3.80;2.50;;;;;;;15.24;47.45;94265.00;5074272;28;20036;-76
2023/04/19 10:56:34;;;;;;;2.75;2.20;;;;;;;15.29;49.02;94270.53;5074238;28;20409;-76
2023/04/19 10:59:10;;;;;;;3.53;2.10;;;;;;;15.33;47.48;94250.09;5074031;28;20038;-76
2023/04/19 11:01:38;;;;;;;3.90;2.40;;;;;;;15.31;47.59;94262.53;5092256;28;20055;-75
2023/04/19 11:04:13;;;;;;;3.50;2.45;;;;;;;15.37;48.37;94251.38;5092087;28;20109;-76
2023/04/19 11:06:54;;;;;;;2.85;2.03;;;;;;;15.43;47.49;94266.38;5057690;28;20432;-75
2023/04/19 11:09:25;;;;;;;3.05;2.10;;;;;;;15.52;47.43;94259.34;5091871;28;20050;-75
2023/04/19 11:11:58;;;;;;;3.00;1.88;;;;;;;15.72;45.48;94255.34;5057683;28;20039;-75
2023/04/19 11:14:23;;;;;;;3.40;2.13;;;;;;;15.78;45.89;94249.41;5057446;28;20039;-75
2023/04/19 11:16:49;;;;;;;2.45;1.83;;;;;;;15.65;44.99;94260.41;5057261;28;20035;-76
2023/04/19 11:19:18;;;;;;;3.13;2.08;;;;;;;15.49;45.51;94234.31;5073670;28;20039;-76
2023/04/19 11:21:46;;;;;;;4.93;2.20;;;;;;;15.61;45.78;94240.78;5040424;28;20129;-75
2023/04/19 11:24:12;;;;;;;5.05;2.75;;;;;;;15.64;47.08;94247.50;5057117;28;20112;-75
2023/04/19 11:26:37;;;;;;;3.70;2.47;;;;;;;15.67;46.03;94225.41;5091825;28;20444;-75
2023/04/19 11:29:05;;;;;;;3.35;2.28;;;;;;;15.59;45.95;94234.91;5056675;28;20071;-75
2023/04/19 11:31:33;;;;;;;3.30;2.20;;;;;;;16.02;46.59;94253.69;5057058;28;20028;-75
2023/04/19 11:33:59;;;;;;;6.47;2.30;;;;;;;16.23;43.83;94247.00;5056541;28;20099;-75